Flugplatz Schameder (EDGQ)

Hier findest Du alle Informationen zum Flugplatz Schameder (EDGQ).

Informationen für Piloten zum Flugplatz Schameder

Hier findest Du alle relevanten Informationen, die Du als Pilot benötigst, um Schameder anzufliegen.

Flugplatz: Schameder ICAO-Code: EDGQ
Frequenz Turm: 122,025 Mhz GAFOR Gebiet: 36
Frequenz Ground: 122,025 Mhz Mogas: ja
Platzrunde: N 0 ft Landegebühr: -
Platzhöhe: - Sunrise: 07:12 Uhr UTC
Pisten: 10/28 - 750 m x 30 m, GRAS Sunset: 16:05 Uhr UTC

Mitglieder, die in Schameder fliegen

Flugwetter am Flugplatz Schameder

Die METAR Information stammen aus EDGS (36.10 km entfernt).

METAR Code:
2021/11/29 16:20
EDGS 291620Z 31013KT 8000 FEW002 BKN004 OVC015 M01/M01 Q1007

Flugschulen am Flugplatz Schameder

Am Flugplatz Schameder gibt es leider keine Flugschule.

Benachbarte Flugplätze und Flugschulen

Es gibt 19 weitere Flugplätze in einem Umkreis von 50 km um den Flugplatz Schameder.

Jetzt anmelden

Passwort vergessen

Umfrage Archiv

Welche Navigations-App nutzt Ihr im Cockpit

SkyDemon
51.8 %
VFRnav
18.7 %
Ich nutze eine andere App
17.1 %
Ich nutze gar keine App
5.4 %
EasyVFR
5.1 %
ForeFlight
1.9 %
Stimmen: 257 | Diskussion (45)
Anzeige: Roland Aircraft
Statistik Alle Mitglieder

Aktuell sind 53 Besucher online, davon 6 Mitglieder und 47 Gäste.


Mitglieder online:
CL-415  Pink Panther  hennes  Heli  NRW-Aviator  b3nn0 

Anzeige: Pocket FMS